sensor_id;sensor_type;location;lat;lon;timestamp;P1;durP1;ratioP1;P2;durP2;ratioP2
17145;SDS011;8688;54.444;18.444;2023-04-01T00:00:11;32.87;;;5.03;;
17145;SDS011;8688;54.444;18.444;2023-04-01T00:02:39;51.57;;;5.50;;
17145;SDS011;8688;54.444;18.444;2023-04-01T00:05:08;31.17;;;4.73;;
17145;SDS011;8688;54.444;18.444;2023-04-01T00:07:37;17.90;;;3.57;;
17145;SDS011;8688;54.444;18.444;2023-04-01T00:10:05;35.10;;;5.07;;
17145;SDS011;8688;54.444;18.444;2023-04-01T00:12:35;37.60;;;4.00;;
17145;SDS011;8688;54.444;18.444;2023-04-01T00:15:03;37.13;;;4.37;;
17145;SDS011;8688;54.444;18.444;2023-04-01T00:17:31;28.93;;;4.83;;
17145;SDS011;8688;54.444;18.444;2023-04-01T00:19:59;32.70;;;4.27;;
17145;SDS011;8688;54.444;18.444;2023-04-01T00:22:29;55.40;;;5.13;;
17145;SDS011;8688;54.444;18.444;2023-04-01T00:24:56;36.30;;;4.73;;
17145;SDS011;8688;54.444;18.444;2023-04-01T00:27:24;53.13;;;5.27;;
17145;SDS011;8688;54.444;18.444;2023-04-01T00:29:51;52.43;;;5.07;;
17145;SDS011;8688;54.444;18.444;2023-04-01T00:32:19;58.30;;;5.70;;
17145;SDS011;8688;54.444;18.444;2023-04-01T00:34:49;27.80;;;4.63;;
17145;SDS011;8688;54.444;18.444;2023-04-01T00:37:18;43.30;;;5.33;;
17145;SDS011;8688;54.444;18.444;2023-04-01T00:39:47;24.93;;;5.00;;
17145;SDS011;8688;54.444;18.444;2023-04-01T00:42:15;15.17;;;3.53;;
17145;SDS011;8688;54.444;18.444;2023-04-01T00:44:44;8.67;;;3.37;;
17145;SDS011;8688;54.444;18.444;2023-04-01T00:47:14;7.43;;;3.40;;
17145;SDS011;8688;54.444;18.444;2023-04-01T00:49:43;7.63;;;3.50;;
17145;SDS011;8688;54.444;18.444;2023-04-01T00:52:13;3.80;;;2.43;;
17145;SDS011;8688;54.444;18.444;2023-04-01T00:54:44;5.13;;;3.03;;
17145;SDS011;8688;54.444;18.444;2023-04-01T00:57:17;7.07;;;2.97;;
17145;SDS011;8688;54.444;18.444;2023-04-01T00:59:48;3.50;;;2.37;;
17145;SDS011;8688;54.444;18.444;2023-04-01T01:02:19;6.30;;;3.10;;
17145;SDS011;8688;54.444;18.444;2023-04-01T01:04:47;5.20;;;2.60;;
17145;SDS011;8688;54.444;18.444;2023-04-01T01:07:18;3.13;;;2.07;;
17145;SDS011;8688;54.444;18.444;2023-04-01T01:09:56;3.77;;;2.47;;
17145;SDS011;8688;54.444;18.444;2023-04-01T01:12:32;2.43;;;1.90;;
17145;SDS011;8688;54.444;18.444;2023-04-01T01:15:08;3.60;;;2.63;;
17145;SDS011;8688;54.444;18.444;2023-04-01T01:17:48;3.33;;;2.60;;
17145;SDS011;8688;54.444;18.444;2023-04-01T01:23:19;4.90;;;2.37;;
17145;SDS011;8688;54.444;18.444;2023-04-01T01:26:29;3.63;;;2.90;;
17145;SDS011;8688;54.444;18.444;2023-04-01T01:29:13;4.23;;;3.07;;
17145;SDS011;8688;54.444;18.444;2023-04-01T01:31:57;4.90;;;3.33;;
17145;SDS011;8688;54.444;18.444;2023-04-01T01:34:35;4.43;;;3.20;;
17145;SDS011;8688;54.444;18.444;2023-04-01T01:37:10;7.07;;;3.70;;
17145;SDS011;8688;54.444;18.444;2023-04-01T01:39:40;6.17;;;3.30;;
17145;SDS011;8688;54.444;18.444;2023-04-01T01:42:11;7.47;;;3.67;;
17145;SDS011;8688;54.444;18.444;2023-04-01T01:44:41;8.67;;;3.70;;
17145;SDS011;8688;54.444;18.444;2023-04-01T01:47:12;6.67;;;3.30;;
17145;SDS011;8688;54.444;18.444;2023-04-01T01:49:42;9.37;;;3.07;;
17145;SDS011;8688;54.444;18.444;2023-04-01T01:52:12;10.83;;;2.97;;
17145;SDS011;8688;54.444;18.444;2023-04-01T01:54:46;10.17;;;3.33;;
17145;SDS011;8688;54.444;18.444;2023-04-01T01:57:14;7.50;;;3.00;;
17145;SDS011;8688;54.444;18.444;2023-04-01T01:59:45;20.80;;;3.77;;
17145;SDS011;8688;54.444;18.444;2023-04-01T02:02:16;4.93;;;3.10;;
17145;SDS011;8688;54.444;18.444;2023-04-01T02:04:44;13.77;;;2.93;;
17145;SDS011;8688;54.444;18.444;2023-04-01T02:07:15;5.27;;;2.50;;
17145;SDS011;8688;54.444;18.444;2023-04-01T02:09:48;4.37;;;2.33;;
17145;SDS011;8688;54.444;18.444;2023-04-01T02:12:16;11.73;;;3.47;;
17145;SDS011;8688;54.444;18.444;2023-04-01T02:14:47;12.97;;;3.17;;
17145;SDS011;8688;54.444;18.444;2023-04-01T02:17:20;4.67;;;3.03;;
17145;SDS011;8688;54.444;18.444;2023-04-01T02:19:49;8.53;;;3.40;;
17145;SDS011;8688;54.444;18.444;2023-04-01T02:22:21;6.30;;;2.63;;
17145;SDS011;8688;54.444;18.444;2023-04-01T02:24:53;5.10;;;2.40;;
17145;SDS011;8688;54.444;18.444;2023-04-01T02:27:24;6.90;;;3.20;;
17145;SDS011;8688;54.444;18.444;2023-04-01T02:29:52;6.57;;;3.30;;
17145;SDS011;8688;54.444;18.444;2023-04-01T02:32:20;7.07;;;3.10;;
17145;SDS011;8688;54.444;18.444;2023-04-01T02:34:48;3.93;;;2.23;;
17145;SDS011;8688;54.444;18.444;2023-04-01T02:37:16;5.17;;;2.67;;
17145;SDS011;8688;54.444;18.444;2023-04-01T02:39:46;4.40;;;2.10;;
17145;SDS011;8688;54.444;18.444;2023-04-01T02:42:13;12.53;;;3.37;;
17145;SDS011;8688;54.444;18.444;2023-04-01T02:44:41;10.77;;;3.20;;
17145;SDS011;8688;54.444;18.444;2023-04-01T02:47:08;9.13;;;2.77;;
17145;SDS011;8688;54.444;18.444;2023-04-01T02:49:35;6.93;;;2.70;;
17145;SDS011;8688;54.444;18.444;2023-04-01T02:52:03;4.43;;;2.73;;
17145;SDS011;8688;54.444;18.444;2023-04-01T02:54:31;3.13;;;2.23;;
17145;SDS011;8688;54.444;18.444;2023-04-01T02:57:00;12.47;;;3.10;;
17145;SDS011;8688;54.444;18.444;2023-04-01T02:59:27;5.17;;;1.87;;
17145;SDS011;8688;54.444;18.444;2023-04-01T03:01:54;13.23;;;2.73;;
17145;SDS011;8688;54.444;18.444;2023-04-01T03:04:22;11.47;;;3.07;;
17145;SDS011;8688;54.444;18.444;2023-04-01T03:06:49;18.00;;;3.20;;
17145;SDS011;8688;54.444;18.444;2023-04-01T03:09:17;17.10;;;3.00;;
17145;SDS011;8688;54.444;18.444;2023-04-01T03:11:45;40.23;;;3.83;;
17145;SDS011;8688;54.444;18.444;2023-04-01T03:14:14;32.40;;;3.63;;
17145;SDS011;8688;54.444;18.444;2023-04-01T03:16:41;22.30;;;3.27;;
17145;SDS011;8688;54.444;18.444;2023-04-01T03:19:08;11.27;;;3.03;;
17145;SDS011;8688;54.444;18.444;2023-04-01T03:21:36;4.33;;;1.73;;
17145;SDS011;8688;54.444;18.444;2023-04-01T03:24:04;14.43;;;3.37;;
17145;SDS011;8688;54.444;18.444;2023-04-01T03:26:33;7.03;;;2.07;;
17145;SDS011;8688;54.444;18.444;2023-04-01T03:29:00;8.60;;;2.53;;
17145;SDS011;8688;54.444;18.444;2023-04-01T03:31:29;10.50;;;3.00;;
17145;SDS011;8688;54.444;18.444;2023-04-01T03:33:57;26.67;;;2.93;;
17145;SDS011;8688;54.444;18.444;2023-04-01T03:36:24;13.97;;;2.40;;
17145;SDS011;8688;54.444;18.444;2023-04-01T03:38:51;14.07;;;2.93;;
17145;SDS011;8688;54.444;18.444;2023-04-01T03:41:19;11.97;;;2.77;;
17145;SDS011;8688;54.444;18.444;2023-04-01T03:43:46;12.30;;;2.83;;
17145;SDS011;8688;54.444;18.444;2023-04-01T03:46:16;8.37;;;2.80;;
17145;SDS011;8688;54.444;18.444;2023-04-01T03:48:45;11.47;;;3.00;;
17145;SDS011;8688;54.444;18.444;2023-04-01T03:51:13;12.13;;;2.70;;
17145;SDS011;8688;54.444;18.444;2023-04-01T03:53:41;3.27;;;2.30;;
17145;SDS011;8688;54.444;18.444;2023-04-01T03:56:08;10.77;;;3.20;;
17145;SDS011;8688;54.444;18.444;2023-04-01T03:58:36;4.80;;;2.30;;
17145;SDS011;8688;54.444;18.444;2023-04-01T04:01:12;3.03;;;2.07;;
17145;SDS011;8688;54.444;18.444;2023-04-01T04:03:41;8.93;;;2.93;;
17145;SDS011;8688;54.444;18.444;2023-04-01T04:06:12;7.70;;;2.80;;
17145;SDS011;8688;54.444;18.444;2023-04-01T04:08:40;7.80;;;3.03;;
17145;SDS011;8688;54.444;18.444;2023-04-01T04:11:07;23.63;;;3.30;;
17145;SDS011;8688;54.444;18.444;2023-04-01T04:13:35;16.57;;;3.13;;
17145;SDS011;8688;54.444;18.444;2023-04-01T04:16:03;12.97;;;3.03;;
17145;SDS011;8688;54.444;18.444;2023-04-01T04:18:31;27.50;;;3.33;;
17145;SDS011;8688;54.444;18.444;2023-04-01T04:20:59;10.33;;;2.50;;
17145;SDS011;8688;54.444;18.444;2023-04-01T04:23:27;20.77;;;3.57;;
17145;SDS011;8688;54.444;18.444;2023-04-01T04:25:58;12.10;;;2.97;;
17145;SDS011;8688;54.444;18.444;2023-04-01T04:28:27;7.80;;;2.73;;
17145;SDS011;8688;54.444;18.444;2023-04-01T04:30:55;14.70;;;3.93;;
17145;SDS011;8688;54.444;18.444;2023-04-01T04:33:23;17.07;;;3.53;;
17145;SDS011;8688;54.444;18.444;2023-04-01T04:35:51;23.00;;;4.27;;
17145;SDS011;8688;54.444;18.444;2023-04-01T04:38:22;13.10;;;3.40;;
17145;SDS011;8688;54.444;18.444;2023-04-01T04:40:51;19.73;;;3.07;;
17145;SDS011;8688;54.444;18.444;2023-04-01T04:43:20;29.40;;;3.43;;
17145;SDS011;8688;54.444;18.444;2023-04-01T04:45:48;30.27;;;3.50;;
17145;SDS011;8688;54.444;18.444;2023-04-01T04:48:15;24.73;;;2.70;;
17145;SDS011;8688;54.444;18.444;2023-04-01T04:50:45;16.50;;;1.83;;
17145;SDS011;8688;54.444;18.444;2023-04-01T04:53:15;18.90;;;2.87;;
17145;SDS011;8688;54.444;18.444;2023-04-01T04:55:43;46.47;;;3.50;;
17145;SDS011;8688;54.444;18.444;2023-04-01T04:58:12;6.90;;;1.57;;
17145;SDS011;8688;54.444;18.444;2023-04-01T05:00:40;25.17;;;2.17;;
17145;SDS011;8688;54.444;18.444;2023-04-01T05:03:08;64.57;;;3.47;;
17145;SDS011;8688;54.444;18.444;2023-04-01T05:05:36;21.00;;;2.77;;
17145;SDS011;8688;54.444;18.444;2023-04-01T05:08:04;59.10;;;3.47;;
17145;SDS011;8688;54.444;18.444;2023-04-01T05:10:31;64.83;;;4.20;;
17145;SDS011;8688;54.444;18.444;2023-04-01T05:12:58;39.07;;;2.80;;
17145;SDS011;8688;54.444;18.444;2023-04-01T05:15:27;54.60;;;3.23;;
17145;SDS011;8688;54.444;18.444;2023-04-01T05:17:55;70.03;;;3.63;;
17145;SDS011;8688;54.444;18.444;2023-04-01T05:20:22;45.90;;;3.23;;
17145;SDS011;8688;54.444;18.444;2023-04-01T05:22:50;66.73;;;4.00;;
17145;SDS011;8688;54.444;18.444;2023-04-01T05:25:21;63.30;;;3.97;;
17145;SDS011;8688;54.444;18.444;2023-04-01T05:27:49;17.10;;;1.60;;
17145;SDS011;8688;54.444;18.444;2023-04-01T05:30:16;16.07;;;2.03;;
17145;SDS011;8688;54.444;18.444;2023-04-01T05:32:46;59.90;;;3.93;;
17145;SDS011;8688;54.444;18.444;2023-04-01T05:35:13;61.93;;;3.47;;
17145;SDS011;8688;54.444;18.444;2023-04-01T05:37:40;68.47;;;3.17;;
17145;SDS011;8688;54.444;18.444;2023-04-01T05:40:08;19.67;;;2.03;;
17145;SDS011;8688;54.444;18.444;2023-04-01T05:42:36;33.40;;;2.43;;
17145;SDS011;8688;54.444;18.444;2023-04-01T05:45:04;46.03;;;3.63;;
17145;SDS011;8688;54.444;18.444;2023-04-01T05:47:32;41.60;;;3.97;;
17145;SDS011;8688;54.444;18.444;2023-04-01T05:50:01;30.60;;;1.60;;
17145;SDS011;8688;54.444;18.444;2023-04-01T05:52:29;62.63;;;3.60;;
17145;SDS011;8688;54.444;18.444;2023-04-01T05:54:56;29.93;;;1.70;;
17145;SDS011;8688;54.444;18.444;2023-04-01T05:57:24;29.13;;;2.30;;
17145;SDS011;8688;54.444;18.444;2023-04-01T05:59:52;39.00;;;3.10;;
17145;SDS011;8688;54.444;18.444;2023-04-01T06:02:19;41.07;;;1.97;;
17145;SDS011;8688;54.444;18.444;2023-04-01T06:04:47;47.00;;;2.87;;
17145;SDS011;8688;54.444;18.444;2023-04-01T06:07:16;34.70;;;2.23;;
17145;SDS011;8688;54.444;18.444;2023-04-01T06:09:44;7.93;;;1.60;;
17145;SDS011;8688;54.444;18.444;2023-04-01T06:12:22;6.03;;;1.40;;
17145;SDS011;8688;54.444;18.444;2023-04-01T06:15:13;1.23;;;1.10;;
17145;SDS011;8688;54.444;18.444;2023-04-01T06:17:54;1.20;;;1.10;;
17145;SDS011;8688;54.444;18.444;2023-04-01T06:20:30;1.00;;;0.90;;
17145;SDS011;8688;54.444;18.444;2023-04-01T06:23:12;2.00;;;1.20;;
17145;SDS011;8688;54.444;18.444;2023-04-01T06:25:54;1.80;;;1.40;;
17145;SDS011;8688;54.444;18.444;2023-04-01T06:28:56;2.10;;;1.27;;
17145;SDS011;8688;54.444;18.444;2023-04-01T06:31:45;1.23;;;1.00;;
17145;SDS011;8688;54.444;18.444;2023-04-01T06:34:35;2.27;;;1.60;;
17145;SDS011;8688;54.444;18.444;2023-04-01T06:37:27;3.03;;;1.77;;
17145;SDS011;8688;54.444;18.444;2023-04-01T06:40:27;2.23;;;1.60;;
17145;SDS011;8688;54.444;18.444;2023-04-01T06:43:17;1.33;;;1.20;;
17145;SDS011;8688;54.444;18.444;2023-04-01T06:45:53;2.23;;;1.43;;
17145;SDS011;8688;54.444;18.444;2023-04-01T06:48:31;3.60;;;1.33;;
17145;SDS011;8688;54.444;18.444;2023-04-01T06:51:21;2.70;;;1.70;;
17145;SDS011;8688;54.444;18.444;2023-04-01T06:53:56;4.03;;;1.60;;
17145;SDS011;8688;54.444;18.444;2023-04-01T06:56:31;2.60;;;1.67;;
17145;SDS011;8688;54.444;18.444;2023-04-01T06:59:01;1.83;;;1.40;;
17145;SDS011;8688;54.444;18.444;2023-04-01T07:01:32;6.40;;;2.50;;
17145;SDS011;8688;54.444;18.444;2023-04-01T07:04:05;14.43;;;2.63;;
17145;SDS011;8688;54.444;18.444;2023-04-01T07:06:38;6.83;;;1.73;;
17145;SDS011;8688;54.444;18.444;2023-04-01T07:09:10;19.10;;;2.30;;
17145;SDS011;8688;54.444;18.444;2023-04-01T07:11:43;19.10;;;3.03;;
17145;SDS011;8688;54.444;18.444;2023-04-01T07:14:13;22.13;;;2.43;;
17145;SDS011;8688;54.444;18.444;2023-04-01T07:16:47;14.63;;;2.50;;
17145;SDS011;8688;54.444;18.444;2023-04-01T07:19:19;41.13;;;3.53;;
17145;SDS011;8688;54.444;18.444;2023-04-01T07:21:51;51.83;;;4.23;;
17145;SDS011;8688;54.444;18.444;2023-04-01T07:24:24;25.03;;;2.80;;
17145;SDS011;8688;54.444;18.444;2023-04-01T07:26:56;25.03;;;2.90;;
17145;SDS011;8688;54.444;18.444;2023-04-01T07:29:24;14.73;;;3.17;;
17145;SDS011;8688;54.444;18.444;2023-04-01T07:31:57;24.67;;;3.17;;
17145;SDS011;8688;54.444;18.444;2023-04-01T07:34:35;8.40;;;1.83;;
17145;SDS011;8688;54.444;18.444;2023-04-01T07:37:10;2.97;;;2.20;;
17145;SDS011;8688;54.444;18.444;2023-04-01T07:39:43;3.23;;;1.90;;
17145;SDS011;8688;54.444;18.444;2023-04-01T07:42:21;3.43;;;2.17;;
17145;SDS011;8688;54.444;18.444;2023-04-01T07:44:59;3.17;;;2.17;;
17145;SDS011;8688;54.444;18.444;2023-04-01T07:47:41;3.33;;;2.10;;
17145;SDS011;8688;54.444;18.444;2023-04-01T07:50:20;2.03;;;1.77;;
17145;SDS011;8688;54.444;18.444;2023-04-01T07:52:55;2.73;;;1.53;;
17145;SDS011;8688;54.444;18.444;2023-04-01T07:55:32;3.93;;;2.23;;
17145;SDS011;8688;54.444;18.444;2023-04-01T07:58:12;2.73;;;1.80;;
17145;SDS011;8688;54.444;18.444;2023-04-01T08:00:46;3.57;;;2.20;;
17145;SDS011;8688;54.444;18.444;2023-04-01T08:06:06;4.30;;;2.30;;
17145;SDS011;8688;54.444;18.444;2023-04-01T08:08:44;2.33;;;1.80;;
17145;SDS011;8688;54.444;18.444;2023-04-01T08:11:24;1.67;;;1.33;;
17145;SDS011;8688;54.444;18.444;2023-04-01T08:14:01;1.20;;;1.10;;
17145;SDS011;8688;54.444;18.444;2023-04-01T08:16:35;2.70;;;1.10;;
17145;SDS011;8688;54.444;18.444;2023-04-01T08:19:09;2.13;;;1.53;;
17145;SDS011;8688;54.444;18.444;2023-04-01T08:21:48;2.23;;;1.27;;
17145;SDS011;8688;54.444;18.444;2023-04-01T08:24:24;1.10;;;1.03;;
17145;SDS011;8688;54.444;18.444;2023-04-01T08:26:56;2.20;;;1.43;;
17145;SDS011;8688;54.444;18.444;2023-04-01T08:29:30;3.17;;;2.33;;
17145;SDS011;8688;54.444;18.444;2023-04-01T08:32:06;2.90;;;1.87;;
17145;SDS011;8688;54.444;18.444;2023-04-01T08:34:37;3.33;;;2.37;;
17145;SDS011;8688;54.444;18.444;2023-04-01T08:37:07;3.40;;;2.30;;
17145;SDS011;8688;54.444;18.444;2023-04-01T08:39:39;3.10;;;2.00;;
17145;SDS011;8688;54.444;18.444;2023-04-01T08:42:30;2.50;;;1.73;;
17145;SDS011;8688;54.444;18.444;2023-04-01T08:45:13;2.20;;;1.60;;
17145;SDS011;8688;54.444;18.444;2023-04-01T08:47:56;3.23;;;2.17;;
17145;SDS011;8688;54.444;18.444;2023-04-01T08:50:50;3.97;;;2.10;;
17145;SDS011;8688;54.444;18.444;2023-04-01T08:53:39;4.63;;;1.67;;
17145;SDS011;8688;54.444;18.444;2023-04-01T08:56:17;4.60;;;2.47;;
17145;SDS011;8688;54.444;18.444;2023-04-01T08:58:55;5.03;;;2.30;;
17145;SDS011;8688;54.444;18.444;2023-04-01T09:01:46;4.07;;;2.37;;
17145;SDS011;8688;54.444;18.444;2023-04-01T09:04:37;1.93;;;1.10;;
17145;SDS011;8688;54.444;18.444;2023-04-01T09:07:23;2.43;;;1.20;;
17145;SDS011;8688;54.444;18.444;2023-04-01T09:10:11;4.57;;;1.83;;
17145;SDS011;8688;54.444;18.444;2023-04-01T09:12:54;3.30;;;1.57;;
17145;SDS011;8688;54.444;18.444;2023-04-01T09:18:45;1.37;;;0.90;;
17145;SDS011;8688;54.444;18.444;2023-04-01T09:21:34;2.37;;;1.43;;
17145;SDS011;8688;54.444;18.444;2023-04-01T09:27:15;2.47;;;1.70;;
17145;SDS011;8688;54.444;18.444;2023-04-01T09:30:06;5.00;;;2.00;;
17145;SDS011;8688;54.444;18.444;2023-04-01T09:33:17;2.07;;;1.10;;
17145;SDS011;8688;54.444;18.444;2023-04-01T09:36:12;1.67;;;0.90;;
17145;SDS011;8688;54.444;18.444;2023-04-01T09:38:54;3.03;;;1.43;;
17145;SDS011;8688;54.444;18.444;2023-04-01T09:41:28;3.43;;;1.10;;
17145;SDS011;8688;54.444;18.444;2023-04-01T09:43:58;1.63;;;0.83;;
17145;SDS011;8688;54.444;18.444;2023-04-01T09:46:44;2.20;;;1.00;;
17145;SDS011;8688;54.444;18.444;2023-04-01T09:52:13;2.03;;;1.10;;
17145;SDS011;8688;54.444;18.444;2023-04-01T09:54:59;2.17;;;1.00;;
17145;SDS011;8688;54.444;18.444;2023-04-01T09:57:49;2.43;;;1.33;;
17145;SDS011;8688;54.444;18.444;2023-04-01T10:00:45;2.27;;;1.30;;
17145;SDS011;8688;54.444;18.444;2023-04-01T10:13:06;2.03;;;1.13;;
17145;SDS011;8688;54.444;18.444;2023-04-01T10:15:57;2.63;;;1.20;;
17145;SDS011;8688;54.444;18.444;2023-04-01T10:21:51;3.10;;;1.50;;
17145;SDS011;8688;54.444;18.444;2023-04-01T10:30:52;2.30;;;1.27;;
17145;SDS011;8688;54.444;18.444;2023-04-01T10:36:41;2.63;;;1.17;;
17145;SDS011;8688;54.444;18.444;2023-04-01T10:51:18;1.20;;;0.97;;
17145;SDS011;8688;54.444;18.444;2023-04-01T10:54:02;2.30;;;0.90;;
17145;SDS011;8688;54.444;18.444;2023-04-01T10:56:49;2.60;;;1.30;;
17145;SDS011;8688;54.444;18.444;2023-04-01T10:59:32;3.93;;;1.20;;
17145;SDS011;8688;54.444;18.444;2023-04-01T11:08:38;4.33;;;1.70;;
17145;SDS011;8688;54.444;18.444;2023-04-01T11:11:46;1.40;;;0.87;;
17145;SDS011;8688;54.444;18.444;2023-04-01T11:21:00;1.73;;;1.07;;
17145;SDS011;8688;54.444;18.444;2023-04-01T11:23:54;2.00;;;1.43;;
17145;SDS011;8688;54.444;18.444;2023-04-01T11:26:42;2.80;;;0.80;;
17145;SDS011;8688;54.444;18.444;2023-04-01T11:29:23;2.03;;;1.07;;
17145;SDS011;8688;54.444;18.444;2023-04-01T11:32:13;2.17;;;1.50;;
17145;SDS011;8688;54.444;18.444;2023-04-01T11:34:54;1.97;;;1.60;;
17145;SDS011;8688;54.444;18.444;2023-04-01T11:37:34;1.57;;;1.17;;
17145;SDS011;8688;54.444;18.444;2023-04-01T11:40:11;2.30;;;1.00;;
17145;SDS011;8688;54.444;18.444;2023-04-01T11:42:52;1.83;;;1.33;;
17145;SDS011;8688;54.444;18.444;2023-04-01T11:45:24;1.67;;;1.23;;
17145;SDS011;8688;54.444;18.444;2023-04-01T11:48:08;2.40;;;1.40;;
17145;SDS011;8688;54.444;18.444;2023-04-01T11:50:51;1.13;;;1.00;;
17145;SDS011;8688;54.444;18.444;2023-04-01T11:53:30;2.23;;;1.10;;
17145;SDS011;8688;54.444;18.444;2023-04-01T11:56:16;3.83;;;1.27;;
17145;SDS011;8688;54.444;18.444;2023-04-01T12:01:58;1.83;;;1.00;;
17145;SDS011;8688;54.444;18.444;2023-04-01T12:04:47;1.10;;;0.73;;
17145;SDS011;8688;54.444;18.444;2023-04-01T12:07:44;1.97;;;0.80;;
17145;SDS011;8688;54.444;18.444;2023-04-01T12:10:33;0.97;;;0.77;;
17145;SDS011;8688;54.444;18.444;2023-04-01T12:13:10;1.33;;;1.03;;
17145;SDS011;8688;54.444;18.444;2023-04-01T12:15:54;3.73;;;1.00;;
17145;SDS011;8688;54.444;18.444;2023-04-01T12:18:36;1.03;;;0.73;;
17145;SDS011;8688;54.444;18.444;2023-04-01T12:21:13;1.27;;;0.93;;
17145;SDS011;8688;54.444;18.444;2023-04-01T12:23:55;2.67;;;1.00;;
17145;SDS011;8688;54.444;18.444;2023-04-01T12:30:00;2.17;;;1.50;;
17145;SDS011;8688;54.444;18.444;2023-04-01T12:32:43;1.50;;;0.80;;
17145;SDS011;8688;54.444;18.444;2023-04-01T12:35:18;0.70;;;0.57;;
17145;SDS011;8688;54.444;18.444;2023-04-01T12:37:58;1.53;;;1.00;;
17145;SDS011;8688;54.444;18.444;2023-04-01T12:40:44;2.50;;;1.07;;
17145;SDS011;8688;54.444;18.444;2023-04-01T12:43:34;1.87;;;0.77;;
17145;SDS011;8688;54.444;18.444;2023-04-01T12:46:38;1.17;;;0.70;;
17145;SDS011;8688;54.444;18.444;2023-04-01T12:52:23;2.63;;;0.90;;
17145;SDS011;8688;54.444;18.444;2023-04-01T13:01:21;1.40;;;0.90;;
17145;SDS011;8688;54.444;18.444;2023-04-01T13:04:05;1.23;;;0.87;;
17145;SDS011;8688;54.444;18.444;2023-04-01T13:07:10;0.67;;;0.60;;
17145;SDS011;8688;54.444;18.444;2023-04-01T13:09:51;1.57;;;0.73;;
17145;SDS011;8688;54.444;18.444;2023-04-01T13:12:29;1.57;;;0.90;;
17145;SDS011;8688;54.444;18.444;2023-04-01T13:15:25;1.10;;;0.90;;
17145;SDS011;8688;54.444;18.444;2023-04-01T13:17:58;0.80;;;0.77;;
17145;SDS011;8688;54.444;18.444;2023-04-01T13:20:40;2.87;;;1.27;;
17145;SDS011;8688;54.444;18.444;2023-04-01T13:23:14;3.20;;;1.40;;
17145;SDS011;8688;54.444;18.444;2023-04-01T13:25:51;2.10;;;1.10;;
17145;SDS011;8688;54.444;18.444;2023-04-01T13:28:26;1.93;;;1.30;;
17145;SDS011;8688;54.444;18.444;2023-04-01T13:30:58;2.33;;;1.07;;
17145;SDS011;8688;54.444;18.444;2023-04-01T13:33:31;1.97;;;1.20;;
17145;SDS011;8688;54.444;18.444;2023-04-01T13:36:14;3.50;;;1.60;;
17145;SDS011;8688;54.444;18.444;2023-04-01T13:38:55;2.07;;;1.00;;
17145;SDS011;8688;54.444;18.444;2023-04-01T13:41:43;1.90;;;1.10;;
17145;SDS011;8688;54.444;18.444;2023-04-01T13:44:22;3.37;;;1.60;;
17145;SDS011;8688;54.444;18.444;2023-04-01T13:49:57;2.20;;;1.60;;
17145;SDS011;8688;54.444;18.444;2023-04-01T13:52:42;1.63;;;1.00;;
17145;SDS011;8688;54.444;18.444;2023-04-01T13:55:30;2.70;;;1.57;;
17145;SDS011;8688;54.444;18.444;2023-04-01T13:58:28;2.47;;;1.30;;
17145;SDS011;8688;54.444;18.444;2023-04-01T14:01:16;2.53;;;1.47;;
17145;SDS011;8688;54.444;18.444;2023-04-01T14:03:54;4.67;;;2.40;;
17145;SDS011;8688;54.444;18.444;2023-04-01T14:06:51;4.47;;;1.50;;
17145;SDS011;8688;54.444;18.444;2023-04-01T14:09:35;3.03;;;1.50;;
17145;SDS011;8688;54.444;18.444;2023-04-01T14:12:19;4.77;;;1.90;;
17145;SDS011;8688;54.444;18.444;2023-04-01T14:15:01;2.93;;;1.97;;
17145;SDS011;8688;54.444;18.444;2023-04-01T14:17:50;3.20;;;1.80;;
17145;SDS011;8688;54.444;18.444;2023-04-01T14:20:38;4.27;;;2.20;;
17145;SDS011;8688;54.444;18.444;2023-04-01T14:29:14;5.20;;;2.43;;
17145;SDS011;8688;54.444;18.444;2023-04-01T14:31:51;6.70;;;3.00;;
17145;SDS011;8688;54.444;18.444;2023-04-01T14:34:33;4.27;;;2.80;;
17145;SDS011;8688;54.444;18.444;2023-04-01T14:37:11;5.53;;;2.30;;
17145;SDS011;8688;54.444;18.444;2023-04-01T14:40:05;3.97;;;2.33;;
17145;SDS011;8688;54.444;18.444;2023-04-01T14:45:58;9.30;;;4.57;;
17145;SDS011;8688;54.444;18.444;2023-04-01T14:48:49;10.43;;;4.10;;
17145;SDS011;8688;54.444;18.444;2023-04-01T14:51:21;6.77;;;3.33;;
17145;SDS011;8688;54.444;18.444;2023-04-01T14:53:58;5.70;;;2.97;;
17145;SDS011;8688;54.444;18.444;2023-04-01T14:56:37;7.37;;;3.57;;
17145;SDS011;8688;54.444;18.444;2023-04-01T14:59:09;5.20;;;3.50;;
17145;SDS011;8688;54.444;18.444;2023-04-01T15:01:42;5.13;;;3.20;;
17145;SDS011;8688;54.444;18.444;2023-04-01T15:04:24;5.57;;;2.90;;
17145;SDS011;8688;54.444;18.444;2023-04-01T15:10:08;6.80;;;3.23;;
17145;SDS011;8688;54.444;18.444;2023-04-01T15:12:47;10.20;;;4.60;;
17145;SDS011;8688;54.444;18.444;2023-04-01T15:15:27;11.03;;;4.63;;
17145;SDS011;8688;54.444;18.444;2023-04-01T15:18:07;5.73;;;3.03;;
17145;SDS011;8688;54.444;18.444;2023-04-01T15:20:48;7.40;;;4.20;;
17145;SDS011;8688;54.444;18.444;2023-04-01T15:23:38;6.20;;;3.70;;
17145;SDS011;8688;54.444;18.444;2023-04-01T15:26:21;8.27;;;3.90;;
17145;SDS011;8688;54.444;18.444;2023-04-01T15:28:59;9.53;;;4.73;;
17145;SDS011;8688;54.444;18.444;2023-04-01T15:31:36;7.57;;;2.93;;
17145;SDS011;8688;54.444;18.444;2023-04-01T15:34:17;4.27;;;2.83;;
17145;SDS011;8688;54.444;18.444;2023-04-01T15:36:53;12.57;;;4.40;;
17145;SDS011;8688;54.444;18.444;2023-04-01T15:39:30;7.30;;;3.97;;
17145;SDS011;8688;54.444;18.444;2023-04-01T15:42:19;8.00;;;3.47;;
17145;SDS011;8688;54.444;18.444;2023-04-01T15:44:59;7.83;;;3.60;;
17145;SDS011;8688;54.444;18.444;2023-04-01T15:47:40;5.73;;;3.67;;
17145;SDS011;8688;54.444;18.444;2023-04-01T15:50:28;9.93;;;5.00;;
17145;SDS011;8688;54.444;18.444;2023-04-01T15:56:36;7.90;;;3.57;;
17145;SDS011;8688;54.444;18.444;2023-04-01T15:59:18;5.97;;;2.87;;
17145;SDS011;8688;54.444;18.444;2023-04-01T16:01:58;5.03;;;2.90;;
17145;SDS011;8688;54.444;18.444;2023-04-01T16:04:46;8.30;;;4.47;;
17145;SDS011;8688;54.444;18.444;2023-04-01T16:07:26;5.90;;;3.17;;
17145;SDS011;8688;54.444;18.444;2023-04-01T16:10:23;6.90;;;3.80;;
17145;SDS011;8688;54.444;18.444;2023-04-01T16:13:12;8.00;;;3.20;;
17145;SDS011;8688;54.444;18.444;2023-04-01T16:15:57;10.93;;;3.27;;
17145;SDS011;8688;54.444;18.444;2023-04-01T16:18:38;5.23;;;2.70;;
17145;SDS011;8688;54.444;18.444;2023-04-01T16:21:27;7.50;;;3.63;;
17145;SDS011;8688;54.444;18.444;2023-04-01T16:24:05;9.03;;;3.80;;
17145;SDS011;8688;54.444;18.444;2023-04-01T16:26:44;10.30;;;2.63;;
17145;SDS011;8688;54.444;18.444;2023-04-01T16:29:20;6.40;;;3.27;;
17145;SDS011;8688;54.444;18.444;2023-04-01T16:31:55;10.90;;;2.83;;
17145;SDS011;8688;54.444;18.444;2023-04-01T16:34:30;8.47;;;4.00;;
17145;SDS011;8688;54.444;18.444;2023-04-01T16:37:05;7.07;;;3.17;;
17145;SDS011;8688;54.444;18.444;2023-04-01T16:39:41;13.13;;;4.00;;
17145;SDS011;8688;54.444;18.444;2023-04-01T16:42:27;6.33;;;2.90;;
17145;SDS011;8688;54.444;18.444;2023-04-01T16:45:08;5.30;;;2.60;;
17145;SDS011;8688;54.444;18.444;2023-04-01T16:47:47;11.60;;;4.30;;
17145;SDS011;8688;54.444;18.444;2023-04-01T16:50:18;9.10;;;4.53;;
17145;SDS011;8688;54.444;18.444;2023-04-01T16:52:57;11.30;;;5.27;;
17145;SDS011;8688;54.444;18.444;2023-04-01T16:55:34;5.30;;;2.80;;
17145;SDS011;8688;54.444;18.444;2023-04-01T16:58:08;10.70;;;4.10;;
17145;SDS011;8688;54.444;18.444;2023-04-01T17:00:44;6.00;;;2.97;;
17145;SDS011;8688;54.444;18.444;2023-04-01T17:03:17;5.40;;;2.83;;
17145;SDS011;8688;54.444;18.444;2023-04-01T17:05:56;5.30;;;3.00;;
17145;SDS011;8688;54.444;18.444;2023-04-01T17:08:37;7.83;;;3.50;;
17145;SDS011;8688;54.444;18.444;2023-04-01T17:11:21;9.73;;;3.97;;
17145;SDS011;8688;54.444;18.444;2023-04-01T17:13:59;7.80;;;3.30;;